createdAt,value
2023-03-13T00:01:14.933Z,101118.38
2023-03-13T00:03:42.940Z,101115.06
2023-03-13T00:06:11.128Z,101116.88
2023-03-13T00:08:39.336Z,101116.16
2023-03-13T00:11:08.724Z,101123.13
2023-03-13T00:13:38.439Z,101129.09
2023-03-13T00:16:08.906Z,101125.28
2023-03-13T00:18:37.185Z,101127.13
2023-03-13T00:21:07.469Z,101121.41
2023-03-13T00:23:37.389Z,101126.09
2023-03-13T00:26:07.658Z,101121.72
2023-03-13T00:28:38.243Z,101120.06
2023-03-13T00:31:08.266Z,101116.56
2023-03-13T00:33:36.937Z,101124.31
2023-03-13T00:36:07.748Z,101119.22
2023-03-13T00:38:36.508Z,101119.22
2023-03-13T00:41:06.492Z,101132.06
2023-03-13T00:43:35.684Z,101129.59
2023-03-13T00:46:05.521Z,101126.97
2023-03-13T00:48:34.373Z,101127.78
2023-03-13T00:51:02.958Z,101136.25
2023-03-13T00:53:31.240Z,101136.47
2023-03-13T00:56:01.405Z,101141.44
2023-03-13T00:58:32.628Z,101143.25
2023-03-13T01:01:10.254Z,101142.38
2023-03-13T01:03:39.696Z,101147.69
2023-03-13T01:06:10.563Z,101149.59
2023-03-13T01:08:38.581Z,101152.75
2023-03-13T01:11:08.663Z,101152.63
2023-03-13T01:13:36.975Z,101150.84
2023-03-13T01:16:06.116Z,101161.91
2023-03-13T01:18:37.756Z,101159.34
2023-03-13T01:21:06.890Z,101157.81
2023-03-13T01:23:35.226Z,101154.56
2023-03-13T01:26:06.196Z,101160.81
2023-03-13T01:28:34.596Z,101164.34
2023-03-13T01:31:11.303Z,101161.47
2023-03-13T01:33:40.912Z,101152.91
2023-03-13T01:36:09.971Z,101165.75
2023-03-13T01:38:38.157Z,101170.13
2023-03-13T01:41:06.669Z,101173.53
2023-03-13T01:43:36.621Z,101173.50
2023-03-13T01:46:13.721Z,101172.03
2023-03-13T01:48:48.031Z,101165.88
2023-03-13T01:51:21.041Z,101167.81
2023-03-13T01:53:52.847Z,101172.13
2023-03-13T01:56:24.092Z,101172.81
2023-03-13T01:58:53.401Z,101173.56
2023-03-13T02:01:22.065Z,101184.09
2023-03-13T02:03:52.052Z,101195.03
2023-03-13T02:06:20.480Z,101185.72
2023-03-13T02:08:53.417Z,101176.81
2023-03-13T02:11:28.843Z,101182.34
2023-03-13T02:13:58.078Z,101182.09
2023-03-13T02:16:26.471Z,101189.38
2023-03-13T02:18:56.037Z,101191.91
2023-03-13T02:21:38.186Z,101198.84
2023-03-13T02:24:15.183Z,101206.53
2023-03-13T02:26:44.713Z,101204.22
2023-03-13T02:29:18.500Z,101213.91
2023-03-13T02:31:48.601Z,101212.13
2023-03-13T02:34:21.824Z,101213.72
2023-03-13T02:36:51.322Z,101214.41
2023-03-13T02:39:23.055Z,101211.50
2023-03-13T02:41:54.408Z,101212.28
2023-03-13T02:44:22.420Z,101221.75
2023-03-13T02:46:53.249Z,101227.59
2023-03-13T02:49:24.781Z,101231.41
2023-03-13T02:51:54.399Z,101234.16
2023-03-13T02:54:25.403Z,101236.00
2023-03-13T02:56:58.719Z,101236.69
2023-03-13T02:59:27.180Z,101238.31
2023-03-13T03:01:55.347Z,101238.31
2023-03-13T03:04:24.364Z,101247.69
2023-03-13T03:06:53.088Z,101251.31
2023-03-13T03:09:21.830Z,101255.47
2023-03-13T03:11:50.426Z,101259.59
2023-03-13T03:14:19.923Z,101264.53
2023-03-13T03:16:48.051Z,101261.97
2023-03-13T03:19:16.313Z,101265.38
2023-03-13T03:21:45.241Z,101272.22
2023-03-13T03:24:13.277Z,101280.72
2023-03-13T03:26:41.177Z,101280.53
2023-03-13T03:29:09.119Z,101272.66
2023-03-13T03:31:38.452Z,101280.09
2023-03-13T03:34:06.445Z,101283.88
2023-03-13T03:36:34.682Z,101286.69
2023-03-13T03:39:02.622Z,101294.72
2023-03-13T03:41:30.539Z,101313.16
2023-03-13T03:43:58.472Z,101311.56
2023-03-13T03:46:26.380Z,101297.16
2023-03-13T03:48:55.829Z,101326.84
2023-03-13T03:51:24.119Z,101334.28
2023-03-13T03:53:52.023Z,101333.94
2023-03-13T03:56:19.943Z,101344.84
2023-03-13T03:58:48.039Z,101343.16
2023-03-13T04:01:15.930Z,101341.94
2023-03-13T04:03:43.955Z,101347.00
2023-03-13T04:06:13.269Z,101351.94
2023-03-13T04:08:41.149Z,101355.34
2023-03-13T04:11:09.039Z,101358.38
2023-03-13T04:13:36.939Z,101353.44
2023-03-13T04:16:08.490Z,101357.47
2023-03-13T04:18:36.686Z,101362.53
2023-03-13T04:21:06.615Z,101360.97
2023-03-13T04:23:35.905Z,101372.22
2023-03-13T04:26:03.800Z,101378.19
2023-03-13T04:28:31.710Z,101375.66
2023-03-13T04:31:01.373Z,101382.47
2023-03-13T04:33:30.383Z,101373.09
2023-03-13T04:35:58.357Z,101381.59
2023-03-13T04:38:26.723Z,101388.41
2023-03-13T04:40:56.014Z,101396.06
2023-03-13T04:43:23.966Z,101396.91
2023-03-13T04:45:54.672Z,101402.84
2023-03-13T04:48:23.024Z,101397.78
2023-03-13T04:50:50.951Z,101404.56
2023-03-13T04:53:19.392Z,101407.13
2023-03-13T04:55:47.598Z,101412.22
2023-03-13T04:58:16.928Z,101417.31
2023-03-13T05:00:44.872Z,101414.72
2023-03-13T05:03:12.790Z,101416.44
2023-03-13T05:05:40.706Z,101418.16
2023-03-13T05:08:08.852Z,101419.88
2023-03-13T05:10:36.817Z,101426.63
2023-03-13T05:13:04.693Z,101424.09
2023-03-13T05:15:34.069Z,101427.47
2023-03-13T05:18:02.017Z,101427.41
2023-03-13T05:20:30.005Z,101424.84
2023-03-13T05:22:57.908Z,101428.19
2023-03-13T05:25:25.867Z,101428.19
2023-03-13T05:27:53.803Z,101430.63
2023-03-13T05:30:21.781Z,101434.63
2023-03-13T05:32:51.147Z,101432.72
2023-03-13T05:35:19.097Z,101435.91
2023-03-13T05:37:47.546Z,101449.31
2023-03-13T05:40:15.837Z,101428.91
2023-03-13T05:42:44.000Z,101431.53
2023-03-13T05:45:13.099Z,101438.06
2023-03-13T05:47:41.754Z,101448.03
2023-03-13T05:50:12.281Z,101450.28
2023-03-13T05:52:40.226Z,101458.59
2023-03-13T05:55:08.587Z,101462.69
2023-03-13T05:57:36.508Z,101458.03
2023-03-13T06:00:04.963Z,101457.63
2023-03-13T06:02:33.008Z,101460.38
2023-03-13T06:05:00.988Z,101458.34
2023-03-13T06:07:30.303Z,101470.69
2023-03-13T06:09:58.245Z,101466.84
2023-03-13T06:12:26.280Z,101462.84
2023-03-13T06:14:54.171Z,101471.13
2023-03-13T06:17:22.165Z,101458.78
2023-03-13T06:19:50.108Z,101468.69
2023-03-13T06:22:18.580Z,101460.03
2023-03-13T06:24:49.682Z,101470.19
2023-03-13T06:27:17.774Z,101472.47
2023-03-13T06:29:45.706Z,101468.56
2023-03-13T06:32:13.698Z,101468.69
2023-03-13T06:34:41.752Z,101453.69
2023-03-13T06:37:09.644Z,101446.53
2023-03-13T06:39:37.629Z,101446.84
2023-03-13T06:42:08.042Z,101437.28
2023-03-13T06:44:35.936Z,101429.66
2023-03-13T06:47:03.919Z,101428.88
2023-03-13T06:49:31.982Z,101430.56
2023-03-13T06:52:00.124Z,101419.19
2023-03-13T06:54:28.052Z,101432.97
2023-03-13T06:56:56.009Z,101440.16
2023-03-13T06:59:25.309Z,101442.81
2023-03-13T07:01:53.227Z,101451.81
2023-03-13T07:04:21.274Z,101444.63
2023-03-13T07:06:49.238Z,101447.16
2023-03-13T07:09:20.029Z,101447.59
2023-03-13T07:11:48.037Z,101443.16
2023-03-13T07:14:17.666Z,101445.34
2023-03-13T07:16:47.707Z,101449.28
2023-03-13T07:19:16.323Z,101439.84
2023-03-13T07:21:44.561Z,101449.50
2023-03-13T07:24:12.652Z,101435.16
2023-03-13T07:26:46.500Z,101440.72
2023-03-13T07:29:22.333Z,101440.97
2023-03-13T07:31:51.880Z,101437.19
2023-03-13T07:34:20.184Z,101452.34
2023-03-13T07:36:48.143Z,101449.72
2023-03-13T07:39:16.048Z,101443.94
2023-03-13T07:41:44.008Z,101439.28
2023-03-13T07:44:12.022Z,101435.53
2023-03-13T07:46:39.934Z,101437.94
2023-03-13T07:49:09.244Z,101438.84
2023-03-13T07:51:43.354Z,101446.56
2023-03-13T07:54:12.147Z,101454.44
2023-03-13T07:56:40.467Z,101453.00
2023-03-13T07:59:09.241Z,101451.88
2023-03-13T08:01:37.602Z,101453.28
2023-03-13T08:04:05.984Z,101451.75
2023-03-13T08:06:36.887Z,101453.13
2023-03-13T08:09:05.656Z,101449.72
2023-03-13T08:11:33.642Z,101450.69
2023-03-13T08:14:01.587Z,101441.59
2023-03-13T08:16:31.737Z,101434.47
2023-03-13T08:19:00.310Z,101416.50
2023-03-13T08:21:30.225Z,101442.63
2023-03-13T08:24:01.386Z,101440.91
2023-03-13T08:26:31.461Z,101442.13
2023-03-13T08:29:01.234Z,101436.22
2023-03-13T08:31:30.959Z,101438.41
2023-03-13T08:33:59.523Z,101437.16
2023-03-13T08:36:29.308Z,101435.13
2023-03-13T08:39:01.807Z,101436.03
2023-03-13T08:41:33.936Z,101435.91
2023-03-13T08:44:01.954Z,101429.63
2023-03-13T08:46:31.384Z,101430.59
2023-03-13T08:48:59.719Z,101422.56
2023-03-13T08:51:29.106Z,101422.84
2023-03-13T08:53:57.807Z,101417.81
2023-03-13T08:56:30.426Z,101422.13
2023-03-13T08:59:00.157Z,101417.38
2023-03-13T09:01:30.321Z,101413.78
2023-03-13T09:04:00.581Z,101408.31
2023-03-13T09:06:30.859Z,101413.19
2023-03-13T09:08:59.277Z,101410.03
2023-03-13T09:11:29.126Z,101407.03
2023-03-13T09:13:59.327Z,101408.81
2023-03-13T09:16:29.550Z,101413.13
2023-03-13T09:18:59.132Z,101404.03
2023-03-13T09:21:29.436Z,101410.00
2023-03-13T09:23:57.962Z,101416.53
2023-03-13T09:26:26.622Z,101411.44
2023-03-13T09:28:56.374Z,101408.63
2023-03-13T09:31:26.699Z,101416.22
2023-03-13T09:33:55.615Z,101405.66
2023-03-13T09:36:24.908Z,101405.34
2023-03-13T09:38:53.418Z,101411.84
2023-03-13T09:41:27.955Z,101410.91
2023-03-13T09:44:04.440Z,101404.50
2023-03-13T09:46:39.111Z,101403.75
2023-03-13T09:49:17.860Z,101397.59
2023-03-13T09:51:51.905Z,101399.00
2023-03-13T09:54:26.059Z,101400.78
2023-03-13T09:56:56.057Z,101396.69
2023-03-13T09:59:31.513Z,101398.69
2023-03-13T10:02:03.317Z,101385.34
2023-03-13T10:04:37.006Z,101381.66
2023-03-13T10:07:05.754Z,101379.59
2023-03-13T10:09:36.825Z,101373.31
2023-03-13T10:12:16.840Z,101374.50
2023-03-13T10:14:54.472Z,101373.06
2023-03-13T10:17:35.287Z,101374.50
2023-03-13T10:20:18.345Z,101375.38
2023-03-13T10:22:49.603Z,101370.06
2023-03-13T10:25:28.851Z,101364.59
2023-03-13T10:27:56.945Z,101360.88
2023-03-13T10:30:28.467Z,101344.72
2023-03-13T10:33:00.074Z,101343.34
2023-03-13T10:35:34.787Z,101352.94
2023-03-13T10:38:07.211Z,101339.84
2023-03-13T10:40:35.349Z,101342.06
2023-03-13T10:43:06.197Z,101334.81
2023-03-13T10:45:37.780Z,101329.81
2023-03-13T10:48:13.830Z,101331.63
2023-03-13T10:50:44.051Z,101326.38
2023-03-13T10:53:33.083Z,101312.09
2023-03-13T10:56:10.528Z,101310.03
2023-03-13T10:58:44.069Z,101306.19
2023-03-13T11:01:21.895Z,101308.03
2023-03-13T11:03:51.348Z,101299.56
2023-03-13T11:06:31.304Z,101289.97
2023-03-13T11:09:03.096Z,101285.94
2023-03-13T11:11:31.879Z,101299.59
2023-03-13T11:14:10.801Z,101286.84
2023-03-13T11:16:47.721Z,101289.91
2023-03-13T11:19:31.169Z,101281.56
2023-03-13T11:22:14.395Z,101280.63
2023-03-13T11:24:47.574Z,101277.13
2023-03-13T11:27:27.868Z,101267.22
2023-03-13T11:30:06.176Z,101275.00
2023-03-13T11:32:42.340Z,101272.53
2023-03-13T11:35:22.254Z,101271.06
2023-03-13T11:37:57.130Z,101260.63
2023-03-13T11:40:32.981Z,101264.25
2023-03-13T11:43:25.378Z,101255.97
2023-03-13T11:46:10.140Z,101262.44
2023-03-13T11:49:17.575Z,101257.16
2023-03-13T11:51:58.011Z,101253.00
2023-03-13T11:54:42.114Z,101252.56
2023-03-13T11:57:15.546Z,101253.81
2023-03-13T11:59:52.398Z,101241.88
2023-03-13T12:02:27.354Z,101249.06
2023-03-13T12:05:01.132Z,101237.78
2023-03-13T12:07:34.021Z,101238.28
2023-03-13T12:10:04.959Z,101235.00
2023-03-13T12:12:41.890Z,101230.16
2023-03-13T12:15:22.614Z,101220.59
2023-03-13T12:17:55.027Z,101204.53
2023-03-13T12:20:28.351Z,101217.59
2023-03-13T12:23:15.384Z,101211.22
2023-03-13T12:25:47.157Z,101218.88
2023-03-13T12:28:25.062Z,101222.19
2023-03-13T12:30:59.379Z,101219.88
2023-03-13T12:33:32.161Z,101223.06
2023-03-13T12:36:06.972Z,101224.94
2023-03-13T12:38:41.128Z,101221.38
2023-03-13T12:41:20.105Z,101221.00
2023-03-13T12:44:07.240Z,101217.13
2023-03-13T12:46:44.205Z,101214.66
2023-03-13T12:49:56.739Z,101203.00
2023-03-13T12:52:57.157Z,101216.59
2023-03-13T12:55:46.936Z,101211.31
2023-03-13T12:58:34.738Z,101203.47
2023-03-13T13:01:06.668Z,101207.72
2023-03-13T13:03:37.451Z,101213.25
2023-03-13T13:06:08.883Z,101211.41
2023-03-13T13:08:40.301Z,101205.72
2023-03-13T13:11:50.657Z,101202.72
2023-03-13T13:14:51.671Z,101202.72
2023-03-13T13:17:36.253Z,101206.13
2023-03-13T13:20:38.992Z,101203.16
2023-03-13T13:23:27.666Z,101187.72
2023-03-13T13:25:57.791Z,101194.59
2023-03-13T13:28:34.579Z,101190.28
2023-03-13T13:31:03.307Z,101186.88
2023-03-13T13:33:41.243Z,101185.41
2023-03-13T13:36:42.581Z,101175.28
2023-03-13T13:39:33.854Z,101169.47
2023-03-13T13:42:03.883Z,101169.94
2023-03-13T13:44:31.960Z,101163.03
2023-03-13T13:47:02.100Z,101146.22
2023-03-13T13:49:56.011Z,101146.88
2023-03-13T13:52:39.381Z,101154.41
2023-03-13T13:55:34.069Z,101164.16
2023-03-13T13:58:05.321Z,101165.41
2023-03-13T14:00:41.906Z,101157.31
2023-03-13T14:03:20.473Z,101151.91
2023-03-13T14:05:53.190Z,101144.19
2023-03-13T14:08:24.312Z,101149.50
2023-03-13T14:11:04.759Z,101150.78
2023-03-13T14:13:32.831Z,101150.63
2023-03-13T14:16:24.327Z,101153.97
2023-03-13T14:18:53.289Z,101154.16
2023-03-13T14:21:25.759Z,101148.66
2023-03-13T14:23:54.225Z,101142.31
2023-03-13T14:26:24.107Z,101146.13
2023-03-13T14:28:53.898Z,101143.16
2023-03-13T14:31:28.616Z,101145.56
2023-03-13T14:33:57.970Z,101148.19
2023-03-13T14:36:28.088Z,101144.03
2023-03-13T14:38:58.323Z,101135.75
2023-03-13T14:41:31.392Z,101133.25
2023-03-13T14:44:07.742Z,101137.56
2023-03-13T14:46:38.341Z,101133.06
2023-03-13T14:49:16.225Z,101128.94
2023-03-13T14:51:45.664Z,101132.94
2023-03-13T14:54:35.421Z,101121.63
2023-03-13T14:57:05.404Z,101128.41
2023-03-13T14:59:33.459Z,101133.25
2023-03-13T15:02:03.556Z,101122.19
2023-03-13T15:04:56.124Z,101120.97
2023-03-13T15:07:27.146Z,101125.41
2023-03-13T15:09:55.425Z,101121.84
2023-03-13T15:12:25.037Z,101129.25
2023-03-13T15:14:53.897Z,101123.19
2023-03-13T15:17:23.574Z,101122.59
2023-03-13T15:19:53.499Z,101120.94
2023-03-13T15:22:28.360Z,101121.84
2023-03-13T15:25:06.076Z,101128.28
2023-03-13T15:27:35.876Z,101126.47
2023-03-13T15:30:03.951Z,101129.91
2023-03-13T15:32:34.972Z,101138.09
2023-03-13T15:35:03.445Z,101132.03
2023-03-13T15:37:33.246Z,101128.09
2023-03-13T15:40:02.508Z,101120.53
2023-03-13T15:42:30.464Z,101113.31
2023-03-13T15:44:58.364Z,101125.25
2023-03-13T15:47:27.651Z,101126.44
2023-03-13T15:49:55.659Z,101126.09
2023-03-13T15:52:23.689Z,101130.56
2023-03-13T15:54:53.610Z,101128.22
2023-03-13T15:57:24.233Z,101124.03
2023-03-13T15:59:52.938Z,101130.31
2023-03-13T16:02:23.668Z,101121.94
2023-03-13T16:04:53.664Z,101120.56
2023-03-13T16:07:22.618Z,101124.38
2023-03-13T16:09:51.987Z,101105.41
2023-03-13T16:12:19.898Z,101122.66
2023-03-13T16:14:47.834Z,101116.63
2023-03-13T16:17:17.793Z,101120.03
2023-03-13T16:19:46.489Z,101114.38
2023-03-13T16:22:14.919Z,101108.97
2023-03-13T16:24:43.226Z,101121.53
2023-03-13T16:27:21.148Z,101129.63
2023-03-13T16:29:49.052Z,101125.63
2023-03-13T16:32:18.790Z,101119.34
2023-03-13T16:34:46.736Z,101128.66
2023-03-13T16:37:16.812Z,101131.31
2023-03-13T16:39:46.042Z,101137.03
2023-03-13T16:42:14.074Z,101138.69
2023-03-13T16:44:43.424Z,101141.56
2023-03-13T16:47:21.151Z,101147.13
2023-03-13T16:49:49.202Z,101142.44
2023-03-13T16:52:18.306Z,101154.19
2023-03-13T16:54:46.729Z,101160.34
2023-03-13T16:57:17.020Z,101159.09
2023-03-13T16:59:46.776Z,101153.06
2023-03-13T17:02:17.070Z,101146.72
2023-03-13T17:04:45.555Z,101158.97
2023-03-13T17:07:20.083Z,101162.66
2023-03-13T17:09:48.394Z,101163.97
2023-03-13T17:12:16.408Z,101159.97
2023-03-13T17:14:44.417Z,101155.94
2023-03-13T17:17:17.721Z,101157.19
2023-03-13T17:19:45.719Z,101163.41
2023-03-13T17:22:14.999Z,101161.16
2023-03-13T17:24:43.889Z,101161.00
2023-03-13T17:27:14.557Z,101156.34
2023-03-13T17:29:43.112Z,101157.63
2023-03-13T17:32:11.870Z,101146.94
2023-03-13T17:34:41.628Z,101147.44
2023-03-13T17:37:15.658Z,101146.81
2023-03-13T17:39:44.583Z,101154.13
2023-03-13T17:42:12.722Z,101150.34
2023-03-13T17:44:41.278Z,101143.09
2023-03-13T17:47:14.792Z,101146.63
2023-03-13T17:49:44.805Z,101150.28
2023-03-13T17:52:17.300Z,101148.59
2023-03-13T17:54:45.963Z,101146.97
2023-03-13T17:57:16.908Z,101139.44
2023-03-13T17:59:45.307Z,101141.34
2023-03-13T18:02:15.048Z,101141.44
2023-03-13T18:04:45.095Z,101135.56
2023-03-13T18:07:18.754Z,101134.94
2023-03-13T18:09:47.913Z,101140.38
2023-03-13T18:12:16.842Z,101134.69
2023-03-13T18:14:45.250Z,101148.78
2023-03-13T18:17:18.461Z,101144.78
2023-03-13T18:19:48.824Z,101142.50
2023-03-13T18:22:18.924Z,101141.81
2023-03-13T18:24:46.963Z,101145.50
2023-03-13T18:27:16.965Z,101151.41
2023-03-13T18:29:45.834Z,101156.88
2023-03-13T18:32:15.448Z,101155.19
2023-03-13T18:34:44.393Z,101157.00
2023-03-13T18:37:21.877Z,101152.00
2023-03-13T18:39:51.323Z,101151.28
2023-03-13T18:42:19.930Z,101159.22
2023-03-13T18:44:47.985Z,101159.34
2023-03-13T18:47:18.216Z,101168.91
2023-03-13T18:49:47.091Z,101168.25
2023-03-13T18:52:16.433Z,101162.28
2023-03-13T18:54:45.168Z,101169.09
2023-03-13T18:57:14.559Z,101163.28
2023-03-13T18:59:42.464Z,101160.13
2023-03-13T19:02:14.164Z,101166.16
2023-03-13T19:04:42.170Z,101158.50
2023-03-13T19:07:17.131Z,101161.97
2023-03-13T19:09:46.941Z,101152.56
2023-03-13T19:12:16.594Z,101153.66
2023-03-13T19:14:44.792Z,101150.41
2023-03-13T19:17:19.303Z,101159.28
2023-03-13T19:19:47.209Z,101159.44
2023-03-13T19:22:16.500Z,101157.56
2023-03-13T19:24:44.407Z,101165.84
2023-03-13T19:27:16.884Z,101168.13
2023-03-13T19:29:45.420Z,101180.75
2023-03-13T19:32:15.122Z,101192.94
2023-03-13T19:34:43.337Z,101193.66
2023-03-13T19:37:11.960Z,101184.19
2023-03-13T19:39:41.842Z,101183.47
2023-03-13T19:42:10.222Z,101189.44
2023-03-13T19:44:40.340Z,101192.69
2023-03-13T19:47:08.328Z,101195.00
2023-03-13T19:49:36.268Z,101187.19
2023-03-13T19:52:04.346Z,101194.97
2023-03-13T19:54:32.238Z,101188.31
2023-03-13T19:57:01.600Z,101196.28
2023-03-13T19:59:31.912Z,101197.06
2023-03-13T20:02:01.328Z,101179.97
2023-03-13T20:04:29.267Z,101187.00
2023-03-13T20:06:57.171Z,101187.22
2023-03-13T20:09:25.105Z,101189.16
2023-03-13T20:11:53.048Z,101182.47
2023-03-13T20:14:22.361Z,101179.97
2023-03-13T20:16:50.269Z,101174.72
2023-03-13T20:19:18.206Z,101185.72
2023-03-13T20:21:46.722Z,101178.84
2023-03-13T20:24:14.632Z,101175.44
2023-03-13T20:26:42.841Z,101175.44
2023-03-13T20:29:10.857Z,101175.69
2023-03-13T20:31:40.178Z,101159.53
2023-03-13T20:34:08.323Z,101158.16
2023-03-13T20:36:36.305Z,101162.16
2023-03-13T20:39:05.551Z,101165.97
2023-03-13T20:41:33.705Z,101159.84
2023-03-13T20:44:01.620Z,101153.50
2023-03-13T20:46:29.582Z,101149.19
2023-03-13T20:48:59.143Z,101155.19
2023-03-13T20:51:27.841Z,101153.81
2023-03-13T20:53:55.780Z,101148.50
2023-03-13T20:56:23.679Z,101151.69
2023-03-13T20:58:51.585Z,101144.53
2023-03-13T21:01:19.864Z,101151.50
2023-03-13T21:03:48.072Z,101153.44
2023-03-13T21:06:19.356Z,101155.19
2023-03-13T21:08:47.738Z,101153.50
2023-03-13T21:11:16.932Z,101150.34
2023-03-13T21:13:45.207Z,101148.31
2023-03-13T21:16:14.423Z,101124.53
2023-03-13T21:18:42.486Z,101150.69
2023-03-13T21:21:12.621Z,101142.00
2023-03-13T21:23:42.117Z,101134.13
2023-03-13T21:26:10.273Z,101137.16
2023-03-13T21:28:39.569Z,101133.09
2023-03-13T21:31:11.617Z,101130.38
2023-03-13T21:33:40.360Z,101133.84
2023-03-13T21:36:09.355Z,101132.34
2023-03-13T21:38:37.421Z,101123.97
2023-03-13T21:41:10.528Z,101122.00
2023-03-13T21:43:38.574Z,101122.81
2023-03-13T21:46:07.009Z,101124.63
2023-03-13T21:48:35.049Z,101122.38
2023-03-13T21:51:02.977Z,101119.97
2023-03-13T21:53:30.918Z,101110.38
2023-03-13T21:55:58.828Z,101107.00
2023-03-13T21:58:28.482Z,101109.06
2023-03-13T22:00:57.159Z,101103.78
2023-03-13T22:03:26.567Z,101097.91
2023-03-13T22:05:54.566Z,101097.06
2023-03-13T22:08:22.506Z,101097.03
2023-03-13T22:10:51.741Z,101093.63
2023-03-13T22:13:19.876Z,101089.59
2023-03-13T22:15:50.553Z,101082.03
2023-03-13T22:18:19.392Z,101077.63
2023-03-13T22:20:47.322Z,101073.28
2023-03-13T22:23:15.255Z,101075.88
2023-03-13T22:25:44.364Z,101068.25
2023-03-13T22:28:13.218Z,101049.44
2023-03-13T22:30:41.331Z,101065.56
2023-03-13T22:33:10.625Z,101050.22
2023-03-13T22:35:39.039Z,101058.63
2023-03-13T22:38:07.289Z,101043.81
2023-03-13T22:40:35.358Z,101027.03
2023-03-13T22:43:03.364Z,101050.06
2023-03-13T22:45:32.211Z,101031.31
2023-03-13T22:48:06.065Z,101034.09
2023-03-13T22:50:35.494Z,101039.34
2023-03-13T22:53:03.904Z,101041.88
2023-03-13T22:55:33.493Z,101044.34
2023-03-13T22:58:01.481Z,101041.63
2023-03-13T23:00:29.640Z,101034.84
2023-03-13T23:02:57.610Z,101040.81
2023-03-13T23:05:25.579Z,101032.19
2023-03-13T23:07:54.894Z,101027.88
2023-03-13T23:10:22.846Z,101038.16
2023-03-13T23:12:50.763Z,101037.94
2023-03-13T23:15:18.907Z,101033.88
2023-03-13T23:17:46.790Z,101029.03
2023-03-13T23:20:15.059Z,101034.84
2023-03-13T23:22:43.931Z,101040.06
2023-03-13T23:25:14.844Z,101031.66
2023-03-13T23:27:43.534Z,101026.50
2023-03-13T23:30:14.117Z,101030.59
2023-03-13T23:32:44.448Z,101028.13
2023-03-13T23:35:13.847Z,101027.75
2023-03-13T23:37:41.757Z,101023.13
2023-03-13T23:40:11.940Z,101028.03
2023-03-13T23:42:41.308Z,101021.41
2023-03-13T23:45:09.713Z,101017.13
2023-03-13T23:47:37.618Z,101016.28
2023-03-13T23:50:06.737Z,101014.53
2023-03-13T23:52:35.341Z,101010.91
2023-03-13T23:55:04.495Z,101009.94
2023-03-13T23:57:32.745Z,101005.63
